+07,Max TemperatureF,Mean TemperatureF,Min TemperatureF,Max Dew PointF,MeanDew PointF,Min DewpointF,Max Humidity, Mean Humidity, Min Humidity, Max Sea Level PressureIn, Mean Sea Level PressureIn, Min Sea Level PressureIn, Max VisibilityMiles, Mean VisibilityMiles, Min VisibilityMiles, Max Wind SpeedMPH, Mean Wind SpeedMPH, Max Gust SpeedMPH,PrecipitationIn, CloudCover, Events, WindDirDegrees
2013-7-1,93,86,78,77,74,70,89,68,49,29.68,29.64,29.53,6,6,6,28,6,,0.00,2,,273
2013-7-2,93,86,78,77,74,70,89,68,52,29.71,29.66,29.59,6,6,6,15,3,26,0.00,3,,234
2013-7-3,93,86,78,77,75,72,89,72,55,29.77,29.69,29.62,6,6,6,17,3,,0.00,3,Rain,184
2013-7-4,89,84,78,77,75,73,89,78,62,29.74,29.69,29.62,6,6,6,12,2,,0.00,5,,252
2013-7-5,91,84,77,77,75,73,84,71,59,29.74,29.68,29.59,6,6,5,21,2,,0.00,2,Rain,243
2013-7-6,91,84,77,77,74,73,94,73,59,29.80,29.70,29.62,6,6,5,8,2,,0.00,4,Rain-Thunderstorm,163
2013-7-7,87,82,77,77,75,73,94,82,62,29.80,29.74,29.68,6,6,5,17,4,,0.00,4,Rain-Thunderstorm,220
2013-7-8,86,82,78,77,75,72,94,78,66,29.80,29.76,29.68,6,6,6,13,5,,0.00,6,Rain,250
2013-7-9,86,82,78,73,72,70,83,71,62,29.80,29.74,29.68,6,6,6,8,4,,0.00,5,,228
2013-7-10,86,82,77,75,73,70,89,74,62,29.80,29.73,29.65,6,6,4,14,5,,0.00,3,Rain,253
2013-7-11,89,84,78,75,75,72,89,80,55,29.80,29.76,29.71,6,6,4,17,2,,0.00,3,Rain-Thunderstorm,267
2013-7-12,91,84,78,77,75,73,89,72,55,29.80,29.73,29.65,6,6,6,15,7,,0.00,2,,303
2013-7-13,91,86,80,77,75,73,89,70,55,29.71,29.64,29.56,6,6,5,14,6,,0.00,2,,269
2013-7-14,93,84,74,77,75,72,84,69,49,29.71,29.64,29.56,6,6,5,13,6,,0.00,1,,245
2013-7-15,91,84,77,79,74,72,94,75,55,29.74,29.67,29.59,6,5,2,20,4,,0.00,3,Rain,260
2013-7-16,86,82,78,77,75,73,89,81,66,29.77,29.72,29.65,6,6,6,15,5,,0.00,6,,239
2013-7-17,89,83,77,75,73,72,89,72,58,29.77,29.69,29.62,6,6,6,17,7,,0.00,5,,269
2013-7-18,91,84,78,75,74,72,89,67,52,29.68,29.63,29.53,6,6,6,17,6,,0.00,1,,281
2013-7-19,91,84,78,75,74,73,89,74,55,29.71,29.65,29.56,6,6,6,21,8,25,0.00,3,Rain-Thunderstorm,259
2013-7-20,86,82,77,75,74,73,94,83,70,29.71,29.67,29.62,6,6,6,16,6,,0.00,5,Rain-Thunderstorm,248
2013-7-21,89,83,77,75,74,72,89,75,59,29.68,29.62,29.53,6,6,6,14,5,,0.00,4,,244
2013-7-22,89,83,77,77,75,73,94,81,62,29.71,29.63,29.53,6,5,3,10,4,,0.00,5,Rain,226
2013-7-23,84,80,77,77,75,73,94,87,74,29.74,29.67,29.59,6,5,4,13,5,,0.00,6,Rain,269
2013-7-24,87,82,77,77,75,73,94,84,62,29.77,29.71,29.65,6,6,5,13,5,21,0.00,5,Rain,246
2013-7-25,91,84,78,77,76,73,89,76,55,29.74,29.70,29.65,6,6,6,12,4,,0.00,3,Rain,245
2013-7-26,89,84,78,77,75,73,84,74,62,29.77,29.71,29.65,6,6,6,13,7,,0.00,4,,238
2013-7-27,89,84,80,77,75,73,84,75,59,29.77,29.72,29.65,6,6,4,12,7,,0.00,4,Rain,251
2013-7-28,87,80,73,77,75,72,100,82,66,29.77,29.72,29.65,6,5,1,14,4,31,0.00,6,Rain,271
2013-7-29,87,82,78,77,77,75,94,88,66,29.77,29.71,29.65,6,5,4,9,3,,0.00,6,Rain,153
2013-7-30,87,81,75,77,75,73,94,87,62,29.74,29.69,29.62,6,5,1,17,3,33,0.00,5,Rain,225
2013-7-31,87,82,77,77,75,73,94,84,66,29.71,29.66,29.56,6,5,3,18,6,30,0.00,4,Rain,270